Time,TemperatureF,DewpointF,PressureIn,WindDirection,WindDirectionDegrees,WindSpeedMPH,WindSpeedGustMPH,Humidity,HourlyPrecipIn,Conditions,Clouds,dailyrainin,SoftwareType,DateUTC
2013-03-19 00:00:00,34.6,32.7,29.82,NE,38,0.0,1.0,93,0.01,,,0.16,WUHU216DAVISVP2,2013-03-19 04:00:00,
2013-03-19 00:05:00,34.5,32.6,29.82,NE,38,0.0,2.0,93,0.01,,,0.00,WUHU216DAVISVP2,2013-03-19 04:05:00,
2013-03-19 00:10:00,34.5,32.6,29.82,NE,38,0.0,2.0,93,0.01,,,0.00,WUHU216DAVISVP2,2013-03-19 04:10:00,
2013-03-19 00:15:00,34.4,32.8,29.82,NE,38,0.0,2.0,94,0.01,,,0.00,WUHU216DAVISVP2,2013-03-19 04:15:00,
2013-03-19 00:20:00,34.4,32.8,29.82,NE,38,0.0,2.0,94,0.01,,,0.00,WUHU216DAVISVP2,2013-03-19 04:20:00,
2013-03-19 00:25:00,34.4,32.9,29.82,NE,38,0.0,1.0,94,0.01,,,0.00,WUHU216DAVISVP2,2013-03-19 04:25:00,
2013-03-19 00:30:00,34.3,32.8,29.81,NE,38,0.0,0.0,94,0.01,,,0.00,WUHU216DAVISVP2,2013-03-19 04:30:00,
2013-03-19 00:35:00,34.3,32.7,29.81,NE,38,1.0,1.0,94,0.01,,,0.00,WUHU216DAVISVP2,2013-03-19 04:35:00,
2013-03-19 00:40:00,34.3,32.7,29.80,NE,38,0.0,1.0,94,0.01,,,0.00,WUHU216DAVISVP2,2013-03-19 04:40:00,
2013-03-19 00:45:00,34.2,32.9,29.80,NE,38,0.0,1.0,95,0.01,,,0.00,WUHU216DAVISVP2,2013-03-19 04:45:00,
2013-03-19 00:50:00,34.2,32.9,29.80,NE,38,0.0,1.0,95,0.02,,,0.01,WUHU216DAVISVP2,2013-03-19 04:50:00,
2013-03-19 00:55:00,34.2,32.9,29.80,NE,38,0.0,1.0,95,0.02,,,0.01,WUHU216DAVISVP2,2013-03-19 04:55:00,
2013-03-19 01:00:00,34.1,32.8,29.80,NE,38,0.0,0.0,95,0.01,,,0.01,WUHU216DAVISVP2,2013-03-19 05:00:00,
2013-03-19 01:05:00,34.1,32.8,29.80,NE,38,0.0,0.0,95,0.01,,,0.01,WUHU216DAVISVP2,2013-03-19 05:05:00,
2013-03-19 01:10:00,34.1,32.8,29.79,NE,38,0.0,0.0,95,0.01,,,0.01,WUHU216DAVISVP2,2013-03-19 05:10:00,
2013-03-19 01:15:00,34.1,32.8,29.79,NE,38,0.0,0.0,95,0.01,,,0.01,WUHU216DAVISVP2,2013-03-19 05:15:00,
2013-03-19 01:20:00,34.1,32.8,29.79,NE,38,0.0,0.0,95,0.01,,,0.01,WUHU216DAVISVP2,2013-03-19 05:20:00,
2013-03-19 01:25:00,34.1,32.8,29.79,NE,38,0.0,0.0,95,0.01,,,0.01,WUHU216DAVISVP2,2013-03-19 05:25:00,
2013-03-19 01:30:00,34.1,32.8,29.79,NE,38,0.0,0.0,95,0.02,,,0.02,WUHU216DAVISVP2,2013-03-19 05:30:00,
2013-03-19 01:35:00,34.1,32.8,29.79,NE,38,0.0,0.0,95,0.02,,,0.02,WUHU216DAVISVP2,2013-03-19 05:35:00,
2013-03-19 01:40:00,34.1,33.0,29.79,NE,38,0.0,0.0,96,0.02,,,0.02,WUHU216DAVISVP2,2013-03-19 05:40:00,
2013-03-19 01:45:00,34.1,32.8,29.79,NE,38,0.0,0.0,95,0.02,,,0.02,WUHU216DAVISVP2,2013-03-19 05:45:00,
2013-03-19 01:50:00,34.1,33.0,29.80,NE,38,0.0,0.0,96,0.01,,,0.02,WUHU216DAVISVP2,2013-03-19 05:50:00,
2013-03-19 01:55:00,34.0,32.9,29.80,NE,38,0.0,0.0,96,0.01,,,0.02,WUHU216DAVISVP2,2013-03-19 05:55:00,
2013-03-19 02:00:00,34.0,32.9,29.80,NE,38,0.0,0.0,96,0.01,,,0.02,WUHU216DAVISVP2,2013-03-19 06:00:00,
2013-03-19 02:05:00,34.0,32.9,29.80,NE,38,0.0,0.0,96,0.01,,,0.02,WUHU216DAVISVP2,2013-03-19 06:05:00,
2013-03-19 02:10:00,34.0,32.9,29.80,NE,38,0.0,0.0,96,0.01,,,0.02,WUHU216DAVISVP2,2013-03-19 06:10:00,
2013-03-19 02:15:00,34.0,33.0,29.80,NE,38,0.0,0.0,96,0.01,,,0.02,WUHU216DAVISVP2,2013-03-19 06:15:00,
2013-03-19 02:20:00,34.0,33.0,29.80,NE,38,0.0,0.0,96,0.01,,,0.02,WUHU216DAVISVP2,2013-03-19 06:20:00,
2013-03-19 02:25:00,34.0,33.0,29.80,NE,38,0.0,0.0,96,0.02,,,0.03,WUHU216DAVISVP2,2013-03-19 06:25:00,
2013-03-19 02:30:00,34.0,32.9,29.80,NE,38,0.0,0.0,96,0.01,,,0.03,WUHU216DAVISVP2,2013-03-19 06:30:00,
2013-03-19 02:35:00,34.0,32.9,29.80,NE,38,0.0,0.0,96,0.01,,,0.03,WUHU216DAVISVP2,2013-03-19 06:35:00,
2013-03-19 02:40:00,34.0,32.9,29.79,NE,38,0.0,0.0,96,0.01,,,0.03,WUHU216DAVISVP2,2013-03-19 06:40:00,
2013-03-19 02:45:00,34.0,32.9,29.79,NE,38,0.0,0.0,96,0.02,,,0.04,WUHU216DAVISVP2,2013-03-19 06:45:00,
2013-03-19 02:50:00,33.9,32.9,29.79,NE,38,0.0,0.0,96,0.02,,,0.04,WUHU216DAVISVP2,2013-03-19 06:50:00,
2013-03-19 02:55:00,33.9,32.9,29.79,NE,38,0.0,0.0,96,0.02,,,0.04,WUHU216DAVISVP2,2013-03-19 06:55:00,
2013-03-19 03:00:00,33.9,32.9,29.78,NE,38,0.0,1.0,96,0.03,,,0.05,WUHU216DAVISVP2,2013-03-19 07:00:00,
2013-03-19 03:05:00,34.0,32.9,29.78,NE,38,0.0,1.0,96,0.03,,,0.05,WUHU216DAVISVP2,2013-03-19 07:05:00,
2013-03-19 03:10:00,34.0,32.9,29.78,NE,38,0.0,1.0,96,0.03,,,0.05,WUHU216DAVISVP2,2013-03-19 07:10:00,
2013-03-19 03:15:00,33.9,32.8,29.78,NE,38,0.0,1.0,96,0.03,,,0.05,WUHU216DAVISVP2,2013-03-19 07:15:00,
2013-03-19 03:20:00,34.0,32.9,29.77,NE,38,0.0,0.0,96,0.03,,,0.05,WUHU216DAVISVP2,2013-03-19 07:20:00,
2013-03-19 03:25:00,33.9,32.9,29.77,NE,38,0.0,0.0,96,0.03,,,0.06,WUHU216DAVISVP2,2013-03-19 07:25:00,
2013-03-19 03:30:00,33.9,32.8,29.78,NE,39,0.0,1.0,96,0.03,,,0.06,WUHU216DAVISVP2,2013-03-19 07:30:00,
2013-03-19 03:35:00,33.9,32.8,29.78,NE,43,0.0,1.0,96,0.03,,,0.06,WUHU216DAVISVP2,2013-03-19 07:35:00,
2013-03-19 03:40:00,34.0,32.9,29.77,NE,43,0.0,1.0,96,0.03,,,0.06,WUHU216DAVISVP2,2013-03-19 07:40:00,
2013-03-19 03:45:00,34.0,32.9,29.77,NE,43,0.0,1.0,96,0.02,,,0.06,WUHU216DAVISVP2,2013-03-19 07:45:00,
2013-03-19 03:50:00,34.0,33.2,29.77,NE,43,0.0,1.0,97,0.02,,,0.06,WUHU216DAVISVP2,2013-03-19 07:50:00,
2013-03-19 03:55:00,33.9,33.1,29.77,NE,43,0.0,1.0,97,0.02,,,0.06,WUHU216DAVISVP2,2013-03-19 07:55:00,
2013-03-19 04:00:00,34.0,33.2,29.77,NE,43,0.0,0.0,97,0.01,,,0.06,WUHU216DAVISVP2,2013-03-19 08:00:00,
2013-03-19 04:05:00,34.0,33.2,29.77,NE,43,0.0,0.0,97,0.01,,,0.06,WUHU216DAVISVP2,2013-03-19 08:05:00,
2013-03-19 04:10:00,34.0,33.2,29.78,NW,322,0.0,3.0,97,0.01,,,0.06,WUHU216DAVISVP2,2013-03-19 08:10:00,
2013-03-19 04:15:00,34.1,33.3,29.78,NNE,21,2.0,3.0,97,0.01,,,0.06,WUHU216DAVISVP2,2013-03-19 08:15:00,
2013-03-19 04:20:00,34.1,33.3,29.78,ENE,77,0.0,3.0,97,0.02,,,0.07,WUHU216DAVISVP2,2013-03-19 08:20:00,
2013-03-19 04:25:00,34.1,33.3,29.78,ENE,77,0.0,3.0,97,0.01,,,0.07,WUHU216DAVISVP2,2013-03-19 08:25:00,
2013-03-19 04:30:00,34.0,33.2,29.78,ENE,77,0.0,3.0,97,0.01,,,0.07,WUHU216DAVISVP2,2013-03-19 08:30:00,
2013-03-19 04:35:00,34.0,33.2,29.78,East,81,0.0,2.0,97,0.01,,,0.07,WUHU216DAVISVP2,2013-03-19 08:35:00,
2013-03-19 04:40:00,34.0,33.2,29.78,ESE,108,0.0,2.0,97,0.01,,,0.07,WUHU216DAVISVP2,2013-03-19 08:40:00,
2013-03-19 04:45:00,34.0,33.2,29.78,ESE,114,1.0,2.0,97,0.02,,,0.08,WUHU216DAVISVP2,2013-03-19 08:45:00,
2013-03-19 04:50:00,34.1,33.3,29.78,SSE,158,1.0,4.0,97,0.02,,,0.08,WUHU216DAVISVP2,2013-03-19 08:50:00,
2013-03-19 04:55:00,34.1,33.3,29.78,East,94,0.0,4.0,97,0.02,,,0.08,WUHU216DAVISVP2,2013-03-19 08:55:00,
2013-03-19 05:00:00,34.1,33.3,29.79,NE,56,0.0,4.0,97,0.02,,,0.08,WUHU216DAVISVP2,2013-03-19 09:00:00,
2013-03-19 05:05:00,34.1,33.3,29.79,NNE,20,0.0,4.0,97,0.02,,,0.08,WUHU216DAVISVP2,2013-03-19 09:05:00,
2013-03-19 05:10:00,34.1,33.3,29.80,East,81,1.0,3.0,97,0.02,,,0.08,WUHU216DAVISVP2,2013-03-19 09:10:00,
2013-03-19 05:15:00,34.2,33.4,29.80,ESE,114,0.0,4.0,97,0.02,,,0.08,WUHU216DAVISVP2,2013-03-19 09:15:00,
2013-03-19 05:20:00,34.2,33.4,29.80,ESE,114,0.0,4.0,97,0.02,,,0.09,WUHU216DAVISVP2,2013-03-19 09:20:00,
2013-03-19 05:25:00,34.2,33.4,29.80,ESE,105,0.0,4.0,97,0.02,,,0.09,WUHU216DAVISVP2,2013-03-19 09:25:00,
2013-03-19 05:30:00,34.2,33.4,29.81,ESE,105,0.0,4.0,97,0.02,,,0.09,WUHU216DAVISVP2,2013-03-19 09:30:00,
2013-03-19 05:35:00,34.2,33.4,29.82,ESE,105,0.0,3.0,97,0.02,,,0.09,WUHU216DAVISVP2,2013-03-19 09:35:00,
2013-03-19 05:40:00,34.3,33.5,29.82,East,81,3.0,4.0,97,0.03,,,0.10,WUHU216DAVISVP2,2013-03-19 09:40:00,
2013-03-19 05:45:00,34.4,33.6,29.82,ESE,109,0.0,5.0,97,0.02,,,0.10,WUHU216DAVISVP2,2013-03-19 09:45:00,
2013-03-19 05:50:00,34.4,33.6,29.82,ESE,106,1.0,5.0,97,0.02,,,0.10,WUHU216DAVISVP2,2013-03-19 09:50:00,
2013-03-19 05:55:00,34.6,33.8,29.83,SE,146,0.0,4.0,97,0.02,,,0.10,WUHU216DAVISVP2,2013-03-19 09:55:00,
2013-03-19 06:00:00,34.7,33.9,29.83,SSE,148,1.0,2.0,97,0.03,,,0.11,WUHU216DAVISVP2,2013-03-19 10:00:00,
2013-03-19 06:05:00,34.8,34.0,29.84,ENE,66,3.0,3.0,97,0.03,,,0.11,WUHU216DAVISVP2,2013-03-19 10:05:00,
2013-03-19 06:10:00,35.1,34.3,29.84,ESE,119,0.0,3.0,97,0.03,,,0.11,WUHU216DAVISVP2,2013-03-19 10:10:00,
2013-03-19 06:15:00,35.3,34.5,29.85,ESE,119,0.0,3.0,97,0.04,,,0.12,WUHU216DAVISVP2,2013-03-19 10:15:00,
2013-03-19 06:20:00,35.3,34.8,29.85,SE,141,1.0,3.0,98,0.03,,,0.12,WUHU216DAVISVP2,2013-03-19 10:20:00,
2013-03-19 06:25:00,35.5,35.0,29.85,ESE,114,2.0,3.0,98,0.03,,,0.12,WUHU216DAVISVP2,2013-03-19 10:25:00,
2013-03-19 06:30:00,35.5,35.0,29.85,SSE,162,2.0,4.0,98,0.04,,,0.13,WUHU216DAVISVP2,2013-03-19 10:30:00,
2013-03-19 06:35:00,35.6,35.1,29.86,SE,133,0.0,4.0,98,0.04,,,0.13,WUHU216DAVISVP2,2013-03-19 10:35:00,
2013-03-19 06:40:00,35.7,35.2,29.86,SE,129,0.0,5.0,98,0.04,,,0.14,WUHU216DAVISVP2,2013-03-19 10:40:00,
2013-03-19 06:45:00,35.6,35.1,29.86,WSW,249,0.0,5.0,98,0.04,,,0.14,WUHU216DAVISVP2,2013-03-19 10:45:00,
2013-03-19 06:50:00,35.8,35.3,29.86,SSW,202,3.0,5.0,98,0.04,,,0.14,WUHU216DAVISVP2,2013-03-19 10:50:00,
2013-03-19 06:55:00,36.3,35.8,29.87,SSW,211,6.0,8.0,98,0.04,,,0.14,WUHU216DAVISVP2,2013-03-19 10:55:00,
2013-03-19 07:00:00,36.8,36.0,29.87,South,170,2.0,14.0,97,0.03,,,0.14,WUHU216DAVISVP2,2013-03-19 11:00:00,
2013-03-19 07:05:00,37.0,35.7,29.88,WSW,258,1.0,14.0,95,0.04,,,0.15,WUHU216DAVISVP2,2013-03-19 11:05:00,
2013-03-19 07:10:00,37.1,34.9,29.88,North,354,3.0,14.0,92,0.04,,,0.15,WUHU216DAVISVP2,2013-03-19 11:10:00,
2013-03-19 07:15:00,37.2,34.5,29.88,SSW,202,2.0,7.0,90,0.03,,,0.15,WUHU216DAVISVP2,2013-03-19 11:15:00,
2013-03-19 07:20:00,37.2,34.5,29.88,South,182,0.0,7.0,90,0.03,,,0.15,WUHU216DAVISVP2,2013-03-19 11:20:00,
2013-03-19 07:25:00,37.1,33.9,29.88,SSW,206,7.0,7.0,88,0.03,,,0.15,WUHU216DAVISVP2,2013-03-19 11:25:00,
2013-03-19 07:30:00,37.3,33.2,29.88,SW,216,2.0,8.0,85,0.02,,,0.15,WUHU216DAVISVP2,2013-03-19 11:30:00,
2013-03-19 07:35:00,37.4,33.3,29.88,SSW,211,1.0,8.0,85,0.02,,,0.15,WUHU216DAVISVP2,2013-03-19 11:35:00,
2013-03-19 07:40:00,37.4,33.3,29.88,SSW,212,5.0,8.0,85,0.01,,,0.15,WUHU216DAVISVP2,2013-03-19 11:40:00,
2013-03-19 07:45:00,37.4,33.0,29.88,SW,219,3.0,7.0,84,0.01,,,0.15,WUHU216DAVISVP2,2013-03-19 11:45:00,
2013-03-19 07:50:00,37.4,33.0,29.88,SSW,193,7.0,7.0,84,0.02,,,0.16,WUHU216DAVISVP2,2013-03-19 11:50:00,
2013-03-19 07:55:00,37.4,32.7,29.88,SW,236,7.0,8.0,83,0.02,,,0.16,WUHU216DAVISVP2,2013-03-19 11:55:00,
2013-03-19 08:00:00,37.3,32.6,29.88,SW,227,8.0,10.0,83,0.02,,,0.16,WUHU216DAVISVP2,2013-03-19 12:00:00,
2013-03-19 08:05:00,37.3,31.4,29.88,SSW,211,7.0,19.0,79,0.01,,,0.16,WUHU216DAVISVP2,2013-03-19 12:05:00,
2013-03-19 08:10:00,37.5,31.3,29.88,South,186,5.0,19.0,78,0.01,,,0.16,WUHU216DAVISVP2,2013-03-19 12:10:00,
2013-03-19 08:15:00,37.6,31.0,29.88,WSW,245,2.0,19.0,77,0.01,,,0.16,WUHU216DAVISVP2,2013-03-19 12:15:00,
2013-03-19 08:20:00,37.6,31.0,29.88,SSW,208,3.0,19.0,77,0.01,,,0.16,WUHU216DAVISVP2,2013-03-19 12:20:00,
2013-03-19 08:25:00,37.6,31.1,29.88,WSW,238,3.0,12.0,77,0.01,,,0.16,WUHU216DAVISVP2,2013-03-19 12:25:00,
2013-03-19 08:30:00,37.5,31.0,29.87,SSW,201,7.0,11.0,77,0.01,,,0.16,WUHU216DAVISVP2,2013-03-19 12:30:00,
2013-03-19 08:35:00,37.6,30.8,29.87,West,268,3.0,8.0,76,0.01,,,0.16,WUHU216DAVISVP2,2013-03-19 12:35:00,
2013-03-19 08:40:00,37.7,30.9,29.87,NNW,327,4.0,8.0,76,0.02,,,0.17,WUHU216DAVISVP2,2013-03-19 12:40:00,
2013-03-19 08:45:00,37.8,30.6,29.87,SSW,205,3.0,9.0,75,0.02,,,0.17,WUHU216DAVISVP2,2013-03-19 12:45:00,
2013-03-19 08:50:00,37.9,30.7,29.87,SW,218,2.0,9.0,75,0.01,,,0.17,WUHU216DAVISVP2,2013-03-19 12:50:00,
2013-03-19 08:55:00,37.9,31.0,29.87,WSW,258,3.0,9.0,76,0.01,,,0.17,WUHU216DAVISVP2,2013-03-19 12:55:00,
2013-03-19 09:00:00,37.9,30.7,29.87,SSW,202,4.0,8.0,75,0.01,,,0.17,WUHU216DAVISVP2,2013-03-19 13:00:00,
2013-03-19 09:05:00,37.9,30.7,29.87,SW,218,5.0,10.0,75,0.02,,,0.18,WUHU216DAVISVP2,2013-03-19 13:05:00,
2013-03-19 09:10:00,38.0,30.8,29.86,SW,220,7.0,11.0,75,0.02,,,0.18,WUHU216DAVISVP2,2013-03-19 13:10:00,
2013-03-19 09:15:00,38.1,30.9,29.87,SW,214,4.0,11.0,75,0.02,,,0.18,WUHU216DAVISVP2,2013-03-19 13:15:00,
2013-03-19 09:20:00,38.2,30.7,29.86,SW,217,2.0,11.0,74,0.03,,,0.19,WUHU216DAVISVP2,2013-03-19 13:20:00,
2013-03-19 09:25:00,38.4,31.2,29.86,SSW,207,4.0,9.0,75,0.03,,,0.19,WUHU216DAVISVP2,2013-03-19 13:25:00,
2013-03-19 09:30:00,38.4,30.6,29.86,South,191,6.0,14.0,73,0.03,,,0.19,WUHU216DAVISVP2,2013-03-19 13:30:00,
2013-03-19 09:35:00,38.5,30.3,29.85,WSW,253,3.0,14.0,72,0.04,,,0.20,WUHU216DAVISVP2,2013-03-19 13:35:00,
2013-03-19 09:40:00,38.7,30.2,29.85,West,264,2.0,15.0,71,0.03,,,0.20,WUHU216DAVISVP2,2013-03-19 13:40:00,
2013-03-19 09:45:00,38.8,30.3,29.84,WSW,240,11.0,15.0,71,0.03,,,0.20,WUHU216DAVISVP2,2013-03-19 13:45:00,
2013-03-19 09:50:00,38.9,30.3,29.84,SW,226,3.0,15.0,71,0.04,,,0.21,WUHU216DAVISVP2,2013-03-19 13:50:00,
2013-03-19 09:55:00,39.0,30.0,29.84,SSW,210,9.0,17.0,70,0.04,,,0.21,WUHU216DAVISVP2,2013-03-19 13:55:00,
2013-03-19 10:00:00,39.0,30.0,29.84,SSW,210,4.0,17.0,70,0.05,,,0.22,WUHU216DAVISVP2,2013-03-19 14:00:00,
2013-03-19 10:05:00,39.1,30.5,29.84,SSE,156,5.0,17.0,71,0.04,,,0.22,WUHU216DAVISVP2,2013-03-19 14:05:00,
2013-03-19 10:10:00,39.2,30.6,29.84,SSE,160,5.0,17.0,71,0.04,,,0.22,WUHU216DAVISVP2,2013-03-19 14:10:00,
2013-03-19 10:15:00,39.2,29.9,29.83,SSW,205,7.0,15.0,69,0.05,,,0.23,WUHU216DAVISVP2,2013-03-19 14:15:00,
2013-03-19 10:20:00,39.4,30.4,29.83,SW,235,6.0,15.0,70,0.04,,,0.23,WUHU216DAVISVP2,2013-03-19 14:20:00,
2013-03-19 10:25:00,39.5,30.2,29.83,SSW,208,11.0,18.0,69,0.04,,,0.23,WUHU216DAVISVP2,2013-03-19 14:25:00,
2013-03-19 10:30:00,39.7,30.7,29.82,SSW,197,2.0,18.0,70,0.05,,,0.24,WUHU216DAVISVP2,2013-03-19 14:30:00,
2013-03-19 10:35:00,39.9,30.9,29.82,WSW,245,5.0,17.0,70,0.04,,,0.24,WUHU216DAVISVP2,2013-03-19 14:35:00,
2013-03-19 10:40:00,40.2,30.8,29.82,SSW,199,8.0,17.0,69,0.05,,,0.25,WUHU216DAVISVP2,2013-03-19 14:40:00,
2013-03-19 10:45:00,40.3,30.9,29.82,SSW,193,6.0,15.0,69,0.05,,,0.25,WUHU216DAVISVP2,2013-03-19 14:45:00,
2013-03-19 10:50:00,40.3,30.2,29.82,West,259,4.0,15.0,67,0.04,,,0.25,WUHU216DAVISVP2,2013-03-19 14:50:00,
2013-03-19 10:55:00,40.3,30.2,29.82,West,274,4.0,16.0,67,0.05,,,0.26,WUHU216DAVISVP2,2013-03-19 14:55:00,
2013-03-19 11:00:00,40.4,30.7,29.81,SW,221,4.0,16.0,68,0.04,,,0.26,WUHU216DAVISVP2,2013-03-19 15:00:00,
2013-03-19 11:05:00,40.5,30.0,29.81,SSW,203,6.0,18.0,66,0.05,,,0.27,WUHU216DAVISVP2,2013-03-19 15:05:00,
2013-03-19 11:10:00,40.5,30.0,29.81,WSW,246,5.0,18.0,66,0.05,,,0.27,WUHU216DAVISVP2,2013-03-19 15:10:00,
2013-03-19 11:15:00,40.7,30.6,29.81,SSW,213,3.0,18.0,67,0.05,,,0.28,WUHU216DAVISVP2,2013-03-19 15:15:00,
2013-03-19 11:20:00,40.8,30.3,29.80,SW,224,6.0,18.0,66,0.05,,,0.28,WUHU216DAVISVP2,2013-03-19 15:20:00,
2013-03-19 11:25:00,40.9,30.0,29.81,SSW,200,7.0,17.0,65,0.06,,,0.29,WUHU216DAVISVP2,2013-03-19 15:25:00,
2013-03-19 11:30:00,41.2,30.7,29.81,WSW,243,5.0,17.0,66,0.05,,,0.29,WUHU216DAVISVP2,2013-03-19 15:30:00,
2013-03-19 11:35:00,41.8,30.6,29.82,WSW,237,8.0,17.0,64,0.06,,,0.30,WUHU216DAVISVP2,2013-03-19 15:35:00,
2013-03-19 11:40:00,42.3,30.7,29.81,SSW,210,4.0,16.0,63,0.06,,,0.31,WUHU216DAVISVP2,2013-03-19 15:40:00,
2013-03-19 11:45:00,42.6,29.8,29.81,SW,216,8.0,17.0,60,0.07,,,0.32,WUHU216DAVISVP2,2013-03-19 15:45:00,
2013-03-19 11:50:00,42.9,29.6,29.81,SW,222,8.0,17.0,59,0.08,,,0.33,WUHU216DAVISVP2,2013-03-19 15:50:00,
2013-03-19 11:55:00,43.1,29.8,29.81,SW,217,9.0,22.0,59,0.08,,,0.34,WUHU216DAVISVP2,2013-03-19 15:55:00,
2013-03-19 12:00:00,43.2,29.5,29.80,South,190,20.0,22.0,58,0.09,,,0.35,WUHU216DAVISVP2,2013-03-19 16:00:00,
2013-03-19 12:05:00,42.9,29.2,29.80,WNW,295,9.0,24.0,58,0.09,,,0.36,WUHU216DAVISVP2,2013-03-19 16:05:00,
2013-03-19 12:10:00,43.2,30.3,29.80,WSW,254,11.0,24.0,60,0.10,,,0.37,WUHU216DAVISVP2,2013-03-19 16:10:00,
2013-03-19 12:15:00,43.3,30.0,29.80,West,279,6.0,24.0,59,0.09,,,0.37,WUHU216DAVISVP2,2013-03-19 16:15:00,
2013-03-19 12:20:00,43.5,30.6,29.80,West,275,3.0,24.0,60,0.10,,,0.38,WUHU216DAVISVP2,2013-03-19 16:20:00,
2013-03-19 12:25:00,43.8,30.0,29.80,WSW,257,9.0,22.0,58,0.09,,,0.38,WUHU216DAVISVP2,2013-03-19 16:25:00,
2013-03-19 12:30:00,43.7,29.0,29.80,SSW,194,11.0,23.0,56,0.10,,,0.39,WUHU216DAVISVP2,2013-03-19 16:30:00,
2013-03-19 12:35:00,43.3,29.9,29.80,West,262,7.0,23.0,59,0.09,,,0.39,WUHU216DAVISVP2,2013-03-19 16:35:00,
2013-03-19 12:40:00,43.2,29.8,29.80,NW,310,6.0,23.0,59,0.09,,,0.40,WUHU216DAVISVP2,2013-03-19 16:40:00,
2013-03-19 12:45:00,43.2,29.8,29.80,WNW,289,8.0,23.0,59,0.08,,,0.40,WUHU216DAVISVP2,2013-03-19 16:45:00,
2013-03-19 12:50:00,43.5,29.7,29.80,WSW,251,13.0,20.0,58,0.08,,,0.41,WUHU216DAVISVP2,2013-03-19 16:50:00,
2013-03-19 12:55:00,43.6,29.4,29.81,SW,228,13.0,20.0,57,0.07,,,0.41,WUHU216DAVISVP2,2013-03-19 16:55:00,
2013-03-19 13:00:00,43.6,28.9,29.81,WNW,287,4.0,21.0,56,0.07,,,0.42,WUHU216DAVISVP2,2013-03-19 17:00:00,
2013-03-19 13:05:00,43.8,30.0,29.81,SSW,211,12.0,21.0,58,0.06,,,0.42,WUHU216DAVISVP2,2013-03-19 17:05:00,
2013-03-19 13:10:00,44.6,29.4,29.80,WNW,291,2.0,23.0,55,0.06,,,0.43,WUHU216DAVISVP2,2013-03-19 17:10:00,
2013-03-19 13:15:00,44.7,28.1,29.80,SW,226,17.0,23.0,52,0.06,,,0.43,WUHU216DAVISVP2,2013-03-19 17:15:00,
2013-03-19 13:20:00,44.5,27.9,29.80,SSW,200,10.0,23.0,52,0.06,,,0.44,WUHU216DAVISVP2,2013-03-19 17:20:00,
2013-03-19 13:25:00,44.9,28.8,29.80,SSW,212,7.0,23.0,53,0.06,,,0.44,WUHU216DAVISVP2,2013-03-19 17:25:00,
2013-03-19 13:30:00,44.9,27.3,29.80,West,275,17.0,21.0,50,0.06,,,0.45,WUHU216DAVISVP2,2013-03-19 17:30:00,
2013-03-19 13:35:00,44.2,27.7,29.80,WNW,283,4.0,21.0,52,0.06,,,0.45,WUHU216DAVISVP2,2013-03-19 17:35:00,
2013-03-19 13:40:00,44.3,27.8,29.80,North,354,3.0,20.0,52,0.05,,,0.45,WUHU216DAVISVP2,2013-03-19 17:40:00,
2013-03-19 13:45:00,44.6,27.6,29.79,NNW,327,18.0,20.0,51,0.05,,,0.45,WUHU216DAVISVP2,2013-03-19 17:45:00,
2013-03-19 13:50:00,45.1,29.5,29.79,SW,219,6.0,20.0,54,0.04,,,0.45,WUHU216DAVISVP2,2013-03-19 17:50:00,
2013-03-19 13:55:00,45.6,28.5,29.79,West,275,14.0,20.0,51,0.05,,,0.46,WUHU216DAVISVP2,2013-03-19 17:55:00,
2013-03-19 14:00:00,45.2,27.6,29.79,West,265,9.0,20.0,50,0.04,,,0.46,WUHU216DAVISVP2,2013-03-19 18:00:00,
2013-03-19 14:05:00,44.9,26.3,29.79,NW,318,13.0,20.0,48,0.04,,,0.46,WUHU216DAVISVP2,2013-03-19 18:05:00,
2013-03-19 14:10:00,44.7,26.1,29.79,WNW,296,11.0,23.0,48,0.03,,,0.46,WUHU216DAVISVP2,2013-03-19 18:10:00,
2013-03-19 14:15:00,44.7,25.1,29.79,WNW,296,12.0,23.0,46,0.03,,,0.46,WUHU216DAVISVP2,2013-03-19 18:15:00,
2013-03-19 14:20:00,44.6,25.5,29.79,West,267,14.0,23.0,47,0.02,,,0.46,WUHU216DAVISVP2,2013-03-19 18:20:00,
2013-03-19 14:25:00,44.6,25.0,29.78,West,272,3.0,20.0,46,0.03,,,0.47,WUHU216DAVISVP2,2013-03-19 18:25:00,
2013-03-19 14:30:00,44.5,25.4,29.78,West,264,6.0,20.0,47,0.02,,,0.47,WUHU216DAVISVP2,2013-03-19 18:30:00,
2013-03-19 14:35:00,44.7,26.6,29.78,NW,325,6.0,20.0,49,0.02,,,0.47,WUHU216DAVISVP2,2013-03-19 18:35:00,
2013-03-19 14:40:00,45.1,24.9,29.78,WNW,288,12.0,17.0,45,0.02,,,0.47,WUHU216DAVISVP2,2013-03-19 18:40:00,
2013-03-19 14:45:00,45.0,24.8,29.78,NW,324,16.0,21.0,45,0.02,,,0.47,WUHU216DAVISVP2,2013-03-19 18:45:00,
2013-03-19 14:50:00,45.0,24.8,29.79,SW,226,9.0,21.0,45,0.02,,,0.47,WUHU216DAVISVP2,2013-03-19 18:50:00,
2013-03-19 14:55:00,45.1,24.3,29.78,WNW,303,17.0,21.0,44,0.01,,,0.47,WUHU216DAVISVP2,2013-03-19 18:55:00,
2013-03-19 15:00:00,45.9,23.3,29.78,SW,236,7.0,22.0,41,0.01,,,0.47,WUHU216DAVISVP2,2013-03-19 19:00:00,
2013-03-19 15:05:00,46.0,22.8,29.78,West,268,11.0,22.0,40,0.01,,,0.47,WUHU216DAVISVP2,2013-03-19 19:05:00,
2013-03-19 15:10:00,46.3,21.9,29.78,WSW,256,8.0,25.0,38,0.01,,,0.47,WUHU216DAVISVP2,2013-03-19 19:10:00,
2013-03-19 15:15:00,46.6,21.5,29.78,SSW,196,7.0,25.0,37,0.01,,,0.47,WUHU216DAVISVP2,2013-03-19 19:15:00,
2013-03-19 15:20:00,46.8,21.0,29.79,WNW,301,16.0,25.0,36,0.01,,,0.47,WUHU216DAVISVP2,2013-03-19 19:20:00,
2013-03-19 15:25:00,46.3,20.6,29.79,West,279,10.0,25.0,36,0.00,,,0.47,WUHU216DAVISVP2,2013-03-19 19:25:00,
2013-03-19 15:30:00,46.3,21.9,29.80,NNW,341,11.0,23.0,38,0.00,,,0.47,WUHU216DAVISVP2,2013-03-19 19:30:00,
2013-03-19 15:35:00,46.3,20.6,29.80,WNW,290,12.0,23.0,36,0.00,,,0.47,WUHU216DAVISVP2,2013-03-19 19:35:00,
2013-03-19 15:40:00,46.6,20.2,29.80,SW,231,8.0,24.0,35,0.00,,,0.47,WUHU216DAVISVP2,2013-03-19 19:40:00,
2013-03-19 15:45:00,46.8,19.0,29.79,SSW,202,9.0,29.0,33,0.00,,,0.47,WUHU216DAVISVP2,2013-03-19 19:45:00,
2013-03-19 15:50:00,46.9,17.6,29.80,WSW,244,9.0,29.0,31,0.00,,,0.47,WUHU216DAVISVP2,2013-03-19 19:50:00,
2013-03-19 15:55:00,46.6,16.6,29.79,West,269,6.0,28.0,30,0.00,,,0.47,WUHU216DAVISVP2,2013-03-19 19:55:00,
2013-03-19 16:00:00,46.7,18.9,29.80,SSW,211,6.0,26.0,33,0.00,,,0.47,WUHU216DAVISVP2,2013-03-19 20:00:00,
2013-03-19 16:05:00,46.9,16.1,29.80,WSW,256,11.0,24.0,29,0.00,,,0.47,WUHU216DAVISVP2,2013-03-19 20:05:00,
2013-03-19 16:10:00,46.5,15.7,29.80,NW,313,10.0,24.0,29,0.00,,,0.47,WUHU216DAVISVP2,2013-03-19 20:10:00,
2013-03-19 16:15:00,46.1,16.9,29.81,SSE,168,6.0,23.0,31,0.00,,,0.47,WUHU216DAVISVP2,2013-03-19 20:15:00,
2013-03-19 16:20:00,45.9,18.2,29.80,West,280,8.0,23.0,33,0.00,,,0.47,WUHU216DAVISVP2,2013-03-19 20:20:00,
2013-03-19 16:25:00,45.7,18.0,29.80,WSW,243,11.0,21.0,33,0.00,,,0.47,WUHU216DAVISVP2,2013-03-19 20:25:00,
2013-03-19 16:30:00,45.5,17.8,29.80,WSW,254,7.0,21.0,33,0.00,,,0.47,WUHU216DAVISVP2,2013-03-19 20:30:00,
2013-03-19 16:35:00,45.3,17.6,29.81,West,275,9.0,21.0,33,0.00,,,0.47,WUHU216DAVISVP2,2013-03-19 20:35:00,
2013-03-19 16:40:00,45.1,17.5,29.81,NNW,341,1.0,18.0,33,0.00,,,0.47,WUHU216DAVISVP2,2013-03-19 20:40:00,
2013-03-19 16:45:00,44.8,18.6,29.81,WSW,246,9.0,21.0,35,0.00,,,0.47,WUHU216DAVISVP2,2013-03-19 20:45:00,
2013-03-19 16:50:00,44.5,18.3,29.81,WSW,237,8.0,21.0,35,0.00,,,0.47,WUHU216DAVISVP2,2013-03-19 20:50:00,
2013-03-19 16:55:00,44.4,17.5,29.82,WNW,289,9.0,21.0,34,0.00,,,0.47,WUHU216DAVISVP2,2013-03-19 20:55:00,
2013-03-19 17:00:00,44.3,18.1,29.82,WNW,288,10.0,21.0,35,0.00,,,0.47,WUHU216DAVISVP2,2013-03-19 21:00:00,
2013-03-19 17:05:00,44.3,18.8,29.82,WNW,293,5.0,17.0,36,0.00,,,0.47,WUHU216DAVISVP2,2013-03-19 21:05:00,
2013-03-19 17:10:00,44.3,18.8,29.83,NNW,348,9.0,17.0,36,0.00,,,0.47,WUHU216DAVISVP2,2013-03-19 21:10:00,
2013-03-19 17:15:00,43.8,19.6,29.83,SSW,203,6.0,17.0,38,0.00,,,0.47,WUHU216DAVISVP2,2013-03-19 21:15:00,
2013-03-19 17:20:00,43.6,18.8,29.83,West,267,0.0,15.0,37,0.00,,,0.47,WUHU216DAVISVP2,2013-03-19 21:20:00,
2013-03-19 17:25:00,43.4,19.9,29.83,SW,216,4.0,15.0,39,0.00,,,0.47,WUHU216DAVISVP2,2013-03-19 21:25:00,
2013-03-19 17:30:00,43.3,20.4,29.84,NNW,335,4.0,15.0,40,0.00,,,0.47,WUHU216DAVISVP2,2013-03-19 21:30:00,
2013-03-19 17:35:00,43.0,20.1,29.84,NNW,347,5.0,15.0,40,0.00,,,0.47,WUHU216DAVISVP2,2013-03-19 21:35:00,
2013-03-19 17:40:00,42.7,20.4,29.85,NW,308,4.0,16.0,41,0.00,,,0.47,WUHU216DAVISVP2,2013-03-19 21:40:00,
2013-03-19 17:45:00,42.5,20.3,29.85,WNW,290,3.0,16.0,41,0.00,,,0.47,WUHU216DAVISVP2,2013-03-19 21:45:00,
2013-03-19 17:50:00,42.3,20.1,29.85,WNW,287,10.0,16.0,41,0.00,,,0.47,WUHU216DAVISVP2,2013-03-19 21:50:00,
2013-03-19 17:55:00,42.2,20.0,29.86,West,260,11.0,17.0,41,0.00,,,0.47,WUHU216DAVISVP2,2013-03-19 21:55:00,
2013-03-19 18:00:00,42.2,20.0,29.85,NNW,331,11.0,17.0,41,0.00,,,0.47,WUHU216DAVISVP2,2013-03-19 22:00:00,
2013-03-19 18:05:00,42.2,21.1,29.85,NW,322,7.0,17.0,43,0.00,,,0.47,WUHU216DAVISVP2,2013-03-19 22:05:00,
2013-03-19 18:10:00,42.1,20.5,29.86,NW,315,8.0,17.0,42,0.00,,,0.47,WUHU216DAVISVP2,2013-03-19 22:10:00,
2013-03-19 18:15:00,42.2,20.0,29.86,West,270,3.0,18.0,41,0.00,,,0.47,WUHU216DAVISVP2,2013-03-19 22:15:00,
2013-03-19 18:20:00,42.2,20.0,29.86,WNW,288,5.0,18.0,41,0.00,,,0.47,WUHU216DAVISVP2,2013-03-19 22:20:00,
2013-03-19 18:25:00,41.9,19.7,29.86,NW,312,6.0,18.0,41,0.00,,,0.47,WUHU216DAVISVP2,2013-03-19 22:25:00,
2013-03-19 18:30:00,41.7,18.3,29.86,WSW,253,5.0,18.0,39,0.00,,,0.47,WUHU216DAVISVP2,2013-03-19 22:30:00,
2013-03-19 18:35:00,41.6,18.3,29.86,West,264,10.0,20.0,39,0.00,,,0.47,WUHU216DAVISVP2,2013-03-19 22:35:00,
2013-03-19 18:40:00,41.5,18.8,29.87,NW,307,6.0,20.0,40,0.00,,,0.47,WUHU216DAVISVP2,2013-03-19 22:40:00,
2013-03-19 18:45:00,41.4,18.1,29.88,WNW,300,9.0,20.0,39,0.00,,,0.47,WUHU216DAVISVP2,2013-03-19 22:45:00,
2013-03-19 18:50:00,41.3,18.0,29.88,WNW,296,7.0,20.0,39,0.00,,,0.47,WUHU216DAVISVP2,2013-03-19 22:50:00,
2013-03-19 18:55:00,41.0,18.9,29.88,WNW,303,10.0,17.0,41,0.00,,,0.47,WUHU216DAVISVP2,2013-03-19 22:55:00,
2013-03-19 19:00:00,40.7,18.6,29.88,NNW,337,8.0,17.0,41,0.00,,,0.47,WUHU216DAVISVP2,2013-03-19 23:00:00,
2013-03-19 19:05:00,40.5,18.4,29.88,West,273,3.0,20.0,41,0.00,,,0.47,WUHU216DAVISVP2,2013-03-19 23:05:00,
2013-03-19 19:10:00,40.4,17.8,29.89,NW,307,9.0,21.0,40,0.00,,,0.47,WUHU216DAVISVP2,2013-03-19 23:10:00,
2013-03-19 19:15:00,40.2,18.8,29.89,WNW,294,10.0,21.0,42,0.00,,,0.47,WUHU216DAVISVP2,2013-03-19 23:15:00,
2013-03-19 19:20:00,40.0,19.8,29.89,WSW,245,5.0,21.0,44,0.00,,,0.47,WUHU216DAVISVP2,2013-03-19 23:20:00,
2013-03-19 19:25:00,39.7,19.5,29.89,NW,319,6.0,21.0,44,0.00,,,0.47,WUHU216DAVISVP2,2013-03-19 23:25:00,
2013-03-19 19:30:00,39.5,19.4,29.89,West,278,4.0,15.0,44,0.00,,,0.47,WUHU216DAVISVP2,2013-03-19 23:30:00,
2013-03-19 19:35:00,39.2,20.0,29.90,WNW,293,14.0,14.0,46,0.00,,,0.47,WUHU216DAVISVP2,2013-03-19 23:35:00,
2013-03-19 19:40:00,39.0,19.8,29.90,WNW,299,7.0,19.0,46,0.00,,,0.47,WUHU216DAVISVP2,2013-03-19 23:40:00,
2013-03-19 19:45:00,38.8,20.2,29.90,WNW,289,5.0,19.0,47,0.00,,,0.47,WUHU216DAVISVP2,2013-03-19 23:45:00,
2013-03-19 19:50:00,38.6,20.0,29.90,NNW,345,2.0,19.0,47,0.00,,,0.47,WUHU216DAVISVP2,2013-03-19 23:50:00,
2013-03-19 19:55:00,38.4,20.3,29.91,WNW,303,4.0,13.0,48,0.00,,,0.47,WUHU216DAVISVP2,2013-03-19 23:55:00,
2013-03-19 20:00:00,38.2,20.1,29.91,WNW,295,6.0,13.0,48,0.00,,,0.47,WUHU216DAVISVP2,2013-03-20 00:00:00,
2013-03-19 20:05:00,38.0,20.5,29.91,NNW,341,10.0,13.0,49,0.00,,,0.47,WUHU216DAVISVP2,2013-03-20 00:05:00,
2013-03-19 20:10:00,37.8,20.3,29.91,West,276,6.0,13.0,49,0.00,,,0.47,WUHU216DAVISVP2,2013-03-20 00:10:00,
2013-03-19 20:15:00,37.7,20.2,29.91,NW,313,2.0,15.0,49,0.00,,,0.47,WUHU216DAVISVP2,2013-03-20 00:15:00,
2013-03-19 20:20:00,37.5,20.5,29.91,NW,323,6.0,15.0,50,0.00,,,0.47,WUHU216DAVISVP2,2013-03-20 00:20:00,
2013-03-19 20:25:00,37.3,20.3,29.91,WNW,303,12.0,15.0,50,0.00,,,0.47,WUHU216DAVISVP2,2013-03-20 00:25:00,
2013-03-19 20:30:00,37.2,20.2,29.92,WNW,303,9.0,15.0,50,0.00,,,0.47,WUHU216DAVISVP2,2013-03-20 00:30:00,
2013-03-19 20:35:00,37.1,20.1,29.92,North,354,6.0,16.0,50,0.00,,,0.47,WUHU216DAVISVP2,2013-03-20 00:35:00,
2013-03-19 20:40:00,37.1,20.1,29.92,NW,312,3.0,16.0,50,0.00,,,0.47,WUHU216DAVISVP2,2013-03-20 00:40:00,
2013-03-19 20:45:00,37.0,21.0,29.93,NNW,331,4.0,16.0,52,0.00,,,0.47,WUHU216DAVISVP2,2013-03-20 00:45:00,
2013-03-19 20:50:00,36.9,20.9,29.93,West,266,2.0,16.0,52,0.00,,,0.47,WUHU216DAVISVP2,2013-03-20 00:50:00,
2013-03-19 20:55:00,36.8,20.3,29.93,WSW,256,14.0,14.0,51,0.00,,,0.47,WUHU216DAVISVP2,2013-03-20 00:55:00,
2013-03-19 21:00:00,36.8,20.3,29.93,West,263,4.0,14.0,51,0.00,,,0.47,WUHU216DAVISVP2,2013-03-20 01:00:00,
2013-03-19 21:05:00,36.8,21.3,29.93,WSW,245,3.0,14.0,53,0.00,,,0.47,WUHU216DAVISVP2,2013-03-20 01:05:00,
2013-03-19 21:10:00,36.7,21.2,29.94,East,89,5.0,14.0,53,0.00,,,0.47,WUHU216DAVISVP2,2013-03-20 01:10:00,
2013-03-19 21:15:00,36.6,21.1,29.94,WSW,256,5.0,14.0,53,0.00,,,0.47,WUHU216DAVISVP2,2013-03-20 01:15:00,
2013-03-19 21:20:00,36.6,21.1,29.94,NW,307,5.0,13.0,53,0.00,,,0.47,WUHU216DAVISVP2,2013-03-20 01:20:00,
2013-03-19 21:25:00,36.6,21.1,29.94,SW,229,7.0,15.0,53,0.00,,,0.47,WUHU216DAVISVP2,2013-03-20 01:25:00,
2013-03-19 21:30:00,36.5,21.0,29.94,WNW,299,6.0,17.0,53,0.00,,,0.47,WUHU216DAVISVP2,2013-03-20 01:30:00,
2013-03-19 21:35:00,36.5,20.5,29.95,NW,320,5.0,20.0,52,0.00,,,0.47,WUHU216DAVISVP2,2013-03-20 01:35:00,
2013-03-19 21:40:00,36.4,20.9,29.95,WNW,295,10.0,20.0,53,0.00,,,0.47,WUHU216DAVISVP2,2013-03-20 01:40:00,
2013-03-19 21:45:00,36.2,19.8,29.95,WNW,282,7.0,23.0,51,0.00,,,0.47,WUHU216DAVISVP2,2013-03-20 01:45:00,
2013-03-19 21:50:00,36.2,19.3,29.95,West,281,9.0,23.0,50,0.00,,,0.47,WUHU216DAVISVP2,2013-03-20 01:50:00,
2013-03-19 21:55:00,36.1,19.2,29.96,NW,306,7.0,23.0,50,0.00,,,0.47,WUHU216DAVISVP2,2013-03-20 01:55:00,
2013-03-19 22:00:00,35.9,19.5,29.96,NW,310,9.0,23.0,51,0.00,,,0.47,WUHU216DAVISVP2,2013-03-20 02:00:00,
2013-03-19 22:05:00,35.7,19.3,29.97,WNW,293,4.0,22.0,51,0.00,,,0.47,WUHU216DAVISVP2,2013-03-20 02:05:00,
2013-03-19 22:10:00,35.6,19.7,29.97,NNW,332,15.0,22.0,52,0.00,,,0.47,WUHU216DAVISVP2,2013-03-20 02:10:00,
2013-03-19 22:15:00,35.5,20.0,29.97,NW,314,1.0,22.0,53,0.00,,,0.47,WUHU216DAVISVP2,2013-03-20 02:15:00,
2013-03-19 22:20:00,35.3,19.4,29.97,NW,322,9.0,22.0,52,0.00,,,0.47,WUHU216DAVISVP2,2013-03-20 02:20:00,
2013-03-19 22:25:00,35.3,19.9,29.97,NW,316,5.0,19.0,53,0.00,,,0.47,WUHU216DAVISVP2,2013-03-20 02:25:00,
2013-03-19 22:30:00,35.2,19.8,29.97,WNW,298,6.0,17.0,53,0.00,,,0.47,WUHU216DAVISVP2,2013-03-20 02:30:00,
2013-03-19 22:35:00,35.1,19.7,29.97,West,260,9.0,15.0,53,0.00,,,0.47,WUHU216DAVISVP2,2013-03-20 02:35:00,
2013-03-19 22:40:00,35.1,20.6,29.98,West,264,5.0,15.0,55,0.00,,,0.47,WUHU216DAVISVP2,2013-03-20 02:40:00,
2013-03-19 22:45:00,35.0,20.5,29.98,SW,222,6.0,16.0,55,0.00,,,0.47,WUHU216DAVISVP2,2013-03-20 02:45:00,
2013-03-19 22:50:00,34.9,20.4,29.98,NNW,331,4.0,16.0,55,0.00,,,0.47,WUHU216DAVISVP2,2013-03-20 02:50:00,
2013-03-19 22:55:00,34.9,20.4,29.98,WSW,237,11.0,16.0,55,0.00,,,0.47,WUHU216DAVISVP2,2013-03-20 02:55:00,
2013-03-19 23:00:00,34.8,20.7,29.98,NNW,341,5.0,16.0,56,0.00,,,0.47,WUHU216DAVISVP2,2013-03-20 03:00:00,
2013-03-19 23:05:00,34.7,20.2,29.98,SSW,213,4.0,14.0,55,0.00,,,0.47,WUHU216DAVISVP2,2013-03-20 03:05:00,
2013-03-19 23:10:00,34.6,20.5,29.98,NW,320,7.0,14.0,56,0.00,,,0.47,WUHU216DAVISVP2,2013-03-20 03:10:00,
2013-03-19 23:15:00,34.5,20.4,29.99,NNW,331,5.0,14.0,56,0.00,,,0.47,WUHU216DAVISVP2,2013-03-20 03:15:00,
2013-03-19 23:20:00,34.4,20.3,29.99,WNW,288,2.0,14.0,56,0.00,,,0.47,WUHU216DAVISVP2,2013-03-20 03:20:00,
2013-03-19 23:25:00,34.3,19.8,29.99,NW,316,3.0,17.0,55,0.00,,,0.47,WUHU216DAVISVP2,2013-03-20 03:25:00,
2013-03-19 23:30:00,34.1,19.6,29.99,NW,305,4.0,17.0,55,0.00,,,0.47,WUHU216DAVISVP2,2013-03-20 03:30:00,
2013-03-19 23:35:00,34.0,19.1,29.99,NW,308,7.0,20.0,54,0.00,,,0.47,WUHU216DAVISVP2,2013-03-20 03:35:00,
2013-03-19 23:40:00,33.9,19.4,29.99,NNW,335,4.0,20.0,55,0.00,,,0.47,WUHU216DAVISVP2,2013-03-20 03:40:00,
2013-03-19 23:45:00,33.7,19.7,29.99,NW,319,3.0,20.0,56,0.00,,,0.47,WUHU216DAVISVP2,2013-03-20 03:45:00,
2013-03-19 23:50:00,33.6,19.1,29.99,West,265,6.0,20.0,55,0.00,,,0.47,WUHU216DAVISVP2,2013-03-20 03:50:00,
2013-03-19 23:55:00,33.5,19.1,29.99,West,270,5.0,15.0,55,0.00,,,0.47,WUHU216DAVISVP2,2013-03-20 03:55:00,